Time;durP1;ratioP1;P1;durP2;ratioP2;P2;SDS_P1;SDS_P2;PMS_P1;PMS_P2;Temp;Humidity;BMP_temperature;BMP_pressure;BME280_temperature;BME280_humidity;BME280_pressure;Samples;Min_cycle;Max_cycle;Signal;HPM_P1;HPM_P2
2023/05/20 00:00:47;;;;;;;4.33;2.20;;;;;;;16.17;52.29;99362.94;7465133;39;20692;31
2023/05/20 00:06:06;;;;;;;4.70;2.10;;;;;;;16.17;53.43;99362.94;7463043;39;20257;31
2023/05/20 00:11:40;;;;;;;2.60;2.30;;;;;;;16.16;52.85;99367.53;7462890;39;21753;31
2023/05/20 00:16:57;;;;;;;3.65;2.10;;;;;;;16.27;53.42;99365.31;7392434;39;20349;31
2023/05/20 00:22:32;;;;;;;3.35;2.05;;;;;;;16.16;53.51;99358.53;7421446;39;20278;31
2023/05/20 00:28:05;;;;;;;3.70;2.15;;;;;;;16.08;53.32;99348.66;7357255;39;20296;31
2023/05/20 00:33:22;;;;;;;5.60;2.45;;;;;;;16.10;53.96;99341.12;7360501;39;20381;31
2023/05/20 00:38:55;;;;;;;3.95;2.17;;;;;;;16.09;54.20;99352.22;7351663;39;21308;31
2023/05/20 00:44:28;;;;;;;3.15;2.25;;;;;;;16.01;54.27;99350.50;7389793;39;20265;31
2023/05/20 00:50:00;;;;;;;3.30;2.20;;;;;;;16.02;54.31;99352.16;7406577;39;20266;31
2023/05/20 00:55:35;;;;;;;5.35;2.55;;;;;;;15.99;54.99;99349.00;7468025;39;20289;31
2023/05/20 01:01:08;;;;;;;3.07;2.43;;;;;;;15.95;55.54;99348.53;7466576;39;20978;31
2023/05/20 01:06:27;;;;;;;4.10;2.40;;;;;;;16.01;54.64;99355.94;7470542;39;21682;31
2023/05/20 01:11:56;;;;;;;3.23;2.50;;;;;;;15.95;55.37;99340.38;7442859;39;20242;31
2023/05/20 01:17:29;;;;;;;5.03;2.50;;;;;;;15.87;54.59;99337.81;7420250;39;20323;31
2023/05/20 01:23:00;;;;;;;3.70;2.60;;;;;;;15.80;56.23;99336.09;7379761;39;21424;31
2023/05/20 01:33:40;;;;;;;2.80;2.20;;;;;;;15.62;56.27;99344.72;7439809;38;20268;31
2023/05/20 01:39:13;;;;;;;3.15;2.50;;;;;;;15.61;56.13;99341.16;7442954;39;20240;31
2023/05/20 01:44:45;;;;;;;4.67;2.43;;;;;;;15.56;56.03;99345.50;7441793;39;20266;31
2023/05/20 01:50:17;;;;;;;4.20;2.70;;;;;;;15.53;55.68;99335.03;7422877;39;20269;31
2023/05/20 01:55:50;;;;;;;3.60;2.40;;;;;;;15.39;56.47;99333.19;7380557;39;21849;31
2023/05/20 02:07:22;;;;;;;4.50;2.60;;;;;;;15.24;57.10;99327.78;7393824;39;20258;31
2023/05/20 02:18:01;;;;;;;4.80;2.80;;;;;;;15.30;57.34;99327.03;7397782;39;20640;31
2023/05/20 02:23:17;;;;;;;3.27;2.50;;;;;;;15.28;57.05;99321.78;7365616;39;21284;31
2023/05/20 02:33:54;;;;;;;2.73;2.30;;;;;;;14.98;58.34;99313.94;7443773;39;20258;31
2023/05/20 02:44:19;;;;;;;4.33;2.70;;;;;;;14.73;59.60;99303.44;7469598;39;21295;31
2023/05/20 02:54:57;;;;;;;3.73;2.27;;;;;;;14.73;59.24;99292.59;7439213;39;20812;31
2023/05/20 03:05:36;;;;;;;4.23;2.70;;;;;;;14.81;58.97;99278.91;7469911;38;20264;31
2023/05/20 03:11:06;;;;;;;4.40;2.65;;;;;;;14.67;60.29;99287.06;7421659;39;21700;31
2023/05/20 03:21:43;;;;;;;3.10;2.67;;;;;;;14.56;60.83;99293.84;7401779;39;20424;31
2023/05/20 03:32:25;;;;;;;5.65;3.10;;;;;;;14.64;60.55;99306.44;7428094;39;20239;31
2023/05/20 03:38:11;;;;;;;5.60;3.27;;;;;;;14.71;60.02;99301.94;7377201;39;21810;31
2023/05/20 03:43:29;;;;;;;4.75;2.80;;;;;;;14.65;60.30;99306.28;7369816;39;20279;31
2023/05/20 03:49:03;;;;;;;3.17;2.73;;;;;;;14.61;61.41;99301.41;7381417;39;21249;31
2023/05/20 03:54:20;;;;;;;6.33;2.67;;;;;;;14.64;61.14;99307.28;7372407;39;20278;31
2023/05/20 03:59:56;;;;;;;3.00;2.50;;;;;;;14.62;61.52;99295.78;7386155;39;20266;31
2023/05/20 04:05:29;;;;;;;4.65;2.80;;;;;;;14.65;61.34;99289.16;7399967;39;20334;31
2023/05/20 04:10:46;;;;;;;4.00;2.90;;;;;;;14.73;60.61;99294.47;7430557;39;20244;31
2023/05/20 04:16:06;;;;;;;4.90;3.05;;;;;;;14.70;61.32;99295.66;7399625;39;20391;31
2023/05/20 04:21:40;;;;;;;5.37;2.90;;;;;;;14.69;61.17;99290.44;7409405;39;20409;31
2023/05/20 04:27:12;;;;;;;5.23;2.60;;;;;;;14.71;60.95;99299.22;7365463;39;20444;31
2023/05/20 04:32:44;;;;;;;3.33;3.00;;;;;;;14.67;61.46;99298.75;7403351;39;21797;31
2023/05/20 04:38:17;;;;;;;3.67;2.70;;;;;;;14.68;61.62;99297.75;7418024;39;20334;31
2023/05/20 04:43:37;;;;;;;4.67;2.97;;;;;;;14.76;61.27;99304.91;7452168;39;21704;31
2023/05/20 04:48:52;;;;;;;6.47;2.90;;;;;;;14.80;61.27;99300.78;7415296;39;20248;31
2023/05/20 04:54:28;;;;;;;3.05;2.75;;;;;;;14.79;62.73;99294.50;7443122;39;20313;31
2023/05/20 04:59:45;;;;;;;3.47;2.90;;;;;;;14.82;62.05;99305.00;7381351;39;20283;31
2023/05/20 05:05:21;;;;;;;3.35;2.60;;;;;;;14.71;63.68;99293.78;7425232;39;20242;31
2023/05/20 05:10:57;;;;;;;4.45;3.20;;;;;;;14.65;63.67;99286.44;7404901;39;20480;31
2023/05/20 05:16:33;;;;;;;3.63;3.00;;;;;;;14.61;63.64;99277.00;7444004;39;20389;31
2023/05/20 05:21:50;;;;;;;4.85;3.20;;;;;;;14.68;63.77;99276.03;7441747;39;20238;31
2023/05/20 05:27:23;;;;;;;3.77;3.10;;;;;;;14.65;64.60;99264.72;7400681;39;20302;31
2023/05/20 05:32:55;;;;;;;7.50;2.90;;;;;;;14.67;64.18;99257.22;7402803;39;20236;31
2023/05/20 05:38:12;;;;;;;5.05;3.30;;;;;;;14.81;63.81;99250.91;7401105;39;20313;31
2023/05/20 05:48:50;;;;;;;8.17;3.60;;;;;;;14.99;64.53;99248.59;7455279;38;20254;31
2023/05/20 05:59:26;;;;;;;4.40;3.27;;;;;;;15.36;64.93;99252.09;7465962;39;20289;31
2023/05/20 06:04:59;;;;;;;3.70;3.20;;;;;;;15.49;64.64;99252.19;7441563;39;21293;31
2023/05/20 06:10:31;;;;;;;4.27;3.70;;;;;;;15.54;64.69;99247.03;7425330;39;21327;31
2023/05/20 06:21:20;;;;;;;5.40;3.40;;;;;;;15.76;64.50;99246.78;7419027;39;20260;31
2023/05/20 06:26:40;;;;;;;4.55;3.35;;;;;;;15.74;64.74;99250.75;7410066;39;20321;31
2023/05/20 06:31:57;;;;;;;3.90;3.40;;;;;;;15.77;63.96;99256.63;7414784;39;21292;31
2023/05/20 06:37:30;;;;;;;4.03;3.33;;;;;;;15.83;64.80;99241.41;7421846;39;20278;31
2023/05/20 06:42:48;;;;;;;4.70;3.70;;;;;;;15.87;64.77;99241.84;7359353;39;21233;31
2023/05/20 06:48:23;;;;;;;4.70;3.40;;;;;;;15.84;64.59;99248.50;7199362;39;20227;31
2023/05/20 06:53:59;;;;;;;4.40;3.43;;;;;;;15.91;64.86;99240.41;7428023;39;21528;31
2023/05/20 06:59:19;;;;;;;5.40;3.50;;;;;;;15.93;64.49;99241.88;7476111;38;20249;31
2023/05/20 07:04:36;;;;;;;5.55;4.05;;;;;;;15.96;64.69;99254.25;7443260;39;20428;31
2023/05/20 07:10:13;;;;;;;4.95;3.90;;;;;;;16.00;64.88;99241.91;7422869;39;20238;31
2023/05/20 07:15:45;;;;;;;4.23;3.70;;;;;;;16.13;64.48;99231.13;7336550;39;20415;31
2023/05/20 07:21:03;;;;;;;5.00;3.70;;;;;;;16.23;64.68;99234.31;7346581;39;21628;31
2023/05/20 07:26:36;;;;;;;4.73;3.70;;;;;;;16.32;64.68;99232.25;7366418;39;20228;31
2023/05/20 07:32:08;;;;;;;5.60;3.97;;;;;;;16.35;64.57;99232.69;7302457;39;21609;31
2023/05/20 07:37:40;;;;;;;6.10;4.10;;;;;;;16.35;64.10;99221.81;7359748;39;20243;31
2023/05/20 07:43:17;;;;;;;4.20;3.70;;;;;;;16.36;65.09;99231.66;7379122;39;21233;31
2023/05/20 07:48:49;;;;;;;5.10;3.70;;;;;;;16.61;63.66;99221.09;7328512;39;20418;31
2023/05/20 07:54:25;;;;;;;6.00;3.97;;;;;;;17.03;64.48;99209.88;7381907;39;20309;31
2023/05/20 07:59:59;;;;;;;4.30;3.90;;;;;;;17.54;63.09;99198.34;7359105;39;21829;31
2023/05/20 08:05:31;;;;;;;5.40;4.10;;;;;;;17.90;61.59;99197.91;7403600;39;20270;31
2023/05/20 08:11:05;;;;;;;5.40;3.73;;;;;;;18.20;61.10;99190.88;7428417;39;21313;31
2023/05/20 08:16:37;;;;;;;6.30;4.05;;;;;;;18.42;60.27;99192.28;7445857;39;21305;31
2023/05/20 08:22:12;;;;;;;7.13;4.03;;;;;;;18.57;59.94;99200.19;7419558;39;20525;31
2023/05/20 08:27:44;;;;;;;5.15;4.40;;;;;;;18.81;59.23;99198.59;7401307;39;20338;31
2023/05/20 08:33:20;;;;;;;4.60;4.20;;;;;;;18.98;58.37;99202.47;7377948;39;21383;31
2023/05/20 08:39:06;;;;;;;6.57;4.37;;;;;;;19.11;60.18;99194.19;7445248;39;20247;31
2023/05/20 08:49:44;;;;;;;5.77;4.50;;;;;;;19.45;57.78;99184.69;7460289;39;20269;31
2023/05/20 08:55:16;;;;;;;4.73;4.10;;;;;;;19.73;57.66;99182.31;7419356;39;20273;31
2023/05/20 09:00:48;;;;;;;5.90;4.50;;;;;;;19.74;57.15;99161.28;7424357;39;20308;31
2023/05/20 09:06:23;;;;;;;5.40;4.30;;;;;;;19.73;57.01;99173.28;7399908;39;21246;31
2023/05/20 09:11:56;;;;;;;5.03;4.47;;;;;;;19.92;56.88;99157.72;7399031;39;21705;31
2023/05/20 09:17:28;;;;;;;7.80;4.43;;;;;;;20.21;56.65;99156.94;7404007;39;21486;31
2023/05/20 09:23:02;;;;;;;4.40;3.85;;;;;;;20.33;56.22;99160.59;7440159;39;20344;31
2023/05/20 09:28:37;;;;;;;5.45;4.40;;;;;;;20.09;55.58;99153.31;7451960;39;20370;31
2023/05/20 09:34:06;;;;;;;6.32;4.57;;;;;;;20.02;56.79;99158.84;7452183;39;21767;31
2023/05/20 09:39:39;;;;;;;5.15;4.35;;;;;;;20.22;57.18;99158.62;7441052;39;20263;31
2023/05/20 09:50:16;;;;;;;4.73;4.23;;;;;;;20.91;55.92;99157.25;7419394;39;20270;31
2023/05/20 10:01:09;;;;;;;6.13;4.87;;;;;;;21.25;54.02;99141.97;7450222;38;20253;31
2023/05/20 10:11:48;;;;;;;5.93;4.57;;;;;;;21.27;54.50;99137.09;7510500;38;21078;31
2023/05/20 10:22:29;;;;;;;4.97;4.37;;;;;;;21.15;54.09;99117.87;7514273;38;20379;31
2023/05/20 10:27:50;;;;;;;8.70;5.80;;;;;;;21.48;53.19;99125.53;7513060;38;21272;31
2023/05/20 10:33:07;;;;;;;6.62;4.35;;;;;;;21.53;54.40;99123.75;7441989;39;20420;31
2023/05/20 10:38:43;;;;;;;5.43;4.65;;;;;;;21.62;53.64;99110.50;7420289;39;21184;31
2023/05/20 10:44:15;;;;;;;5.90;4.70;;;;;;;22.10;52.99;99101.97;7418591;39;21715;31
2023/05/20 10:49:48;;;;;;;6.72;4.75;;;;;;;22.24;52.77;99114.34;7406838;39;20310;31
2023/05/20 10:55:23;;;;;;;6.57;4.80;;;;;;;22.03;51.97;99101.25;7420219;39;21191;31
2023/05/20 11:00:40;;;;;;;6.85;4.75;;;;;;;22.40;53.01;99091.59;7420090;39;21736;31
2023/05/20 11:06:16;;;;;;;7.10;4.95;;;;;;;22.29;53.02;99083.41;7467563;39;20249;31
2023/05/20 11:11:49;;;;;;;5.57;4.93;;;;;;;22.59;51.99;99074.91;7398281;39;20362;31
2023/05/20 11:17:09;;;;;;;8.63;5.05;;;;;;;22.74;52.25;99086.19;7349589;39;21276;31
2023/05/20 11:22:41;;;;;;;9.00;5.30;;;;;;;22.53;52.09;99089.59;7421816;39;20315;31
2023/05/20 11:28:17;;;;;;;5.93;4.77;;;;;;;22.40;52.09;99075.09;7396497;39;21243;31
2023/05/20 11:38:55;;;;;;;6.72;4.37;;;;;;;22.77;51.80;99056.28;7397113;39;20267;31
2023/05/20 11:44:28;;;;;;;5.60;5.10;;;;;;;22.83;50.65;99062.69;7385750;39;21156;31
2023/05/20 11:50:03;;;;;;;5.12;4.60;;;;;;;23.06;51.52;99067.22;7441331;39;21860;31
2023/05/20 11:55:36;;;;;;;6.75;4.80;;;;;;;22.56;50.65;99056.13;7460329;39;21593;31
2023/05/20 12:01:10;;;;;;;9.47;4.90;;;;;;;22.61;50.86;99037.84;7398276;39;21508;31
2023/05/20 12:06:42;;;;;;;5.30;4.70;;;;;;;22.53;50.67;99042.91;7357911;39;21685;31
2023/05/20 12:12:19;;;;;;;5.43;4.73;;;;;;;22.78;50.71;99040.63;7365188;39;21475;31
2023/05/20 12:22:56;;;;;;;5.50;4.95;;;;;;;22.31;51.97;99051.84;7399078;38;20416;31
2023/05/20 12:28:15;;;;;;;6.63;5.07;;;;;;;22.56;51.60;99035.00;7403302;39;20312;31
2023/05/20 12:33:46;;;;;;;6.15;4.90;;;;;;;22.58;51.40;99029.25;7438574;39;21634;31
2023/05/20 12:39:18;;;;;;;9.68;4.68;;;;;;;22.52;50.74;99031.06;7397353;39;21338;31
2023/05/20 12:44:35;;;;;;;5.05;4.55;;;;;;;22.36;50.76;99038.22;7372584;39;21828;31
2023/05/20 12:49:52;;;;;;;5.43;4.77;;;;;;;22.15;51.49;99030.69;7420039;39;20465;31
2023/05/20 12:55:28;;;;;;;6.00;4.53;;;;;;;21.87;51.96;99036.97;7364706;39;20247;31
2023/05/20 13:00:45;;;;;;;6.45;4.50;;;;;;;21.81;52.52;99024.19;7449495;39;20246;31
2023/05/20 13:06:17;;;;;;;6.30;4.80;;;;;;;21.82;52.30;99022.28;7446795;39;20254;31
2023/05/20 13:11:50;;;;;;;5.15;4.60;;;;;;;21.94;52.65;99020.38;7427568;39;20241;31
2023/05/20 13:17:25;;;;;;;6.70;4.90;;;;;;;22.09;52.05;99017.94;7440634;39;21173;31
2023/05/20 13:22:42;;;;;;;5.50;4.57;;;;;;;22.11;52.19;99020.44;7417289;39;20253;31
2023/05/20 13:28:19;;;;;;;5.15;4.53;;;;;;;22.33;51.63;99002.19;7219379;39;20273;31
2023/05/20 13:33:39;;;;;;;5.07;4.50;;;;;;;22.52;52.24;99009.09;7392086;39;20246;31
2023/05/20 13:39:12;;;;;;;7.47;4.73;;;;;;;22.52;51.54;98997.28;7444120;39;20246;31
2023/05/20 13:44:46;;;;;;;5.43;4.50;;;;;;;22.57;50.64;99002.84;7398390;39;21363;31
2023/05/20 13:50:05;;;;;;;5.97;4.53;;;;;;;22.62;50.41;98992.78;7379869;39;21201;31
2023/05/20 13:55:37;;;;;;;5.53;5.00;;;;;;;22.54;50.35;98975.91;7353029;39;21304;31
2023/05/20 14:01:12;;;;;;;5.40;4.40;;;;;;;22.63;51.11;98979.91;7383871;39;21685;31
2023/05/20 14:06:45;;;;;;;7.30;4.90;;;;;;;22.67;50.85;98976.41;7405146;39;21355;31
2023/05/20 14:12:03;;;;;;;5.83;4.63;;;;;;;22.64;49.80;98957.63;7441375;39;20508;31
2023/05/20 14:17:39;;;;;;;5.15;4.65;;;;;;;22.77;50.14;98953.78;7460913;38;20253;31
2023/05/20 14:23:00;;;;;;;6.05;5.15;;;;;;;23.04;50.33;98951.13;7509271;38;20237;31
2023/05/20 14:28:32;;;;;;;7.95;5.15;;;;;;;23.00;48.91;98931.56;7443197;39;20250;31
2023/05/20 14:34:06;;;;;;;6.30;4.87;;;;;;;23.00;49.65;98942.56;7484084;39;21605;31
2023/05/20 14:39:38;;;;;;;5.80;4.95;;;;;;;23.08;49.45;98942.13;7460334;39;21777;31
2023/05/20 14:50:20;;;;;;;5.18;4.68;;;;;;;23.04;49.93;98934.63;7511573;38;20263;31
2023/05/20 15:00:46;;;;;;;6.87;5.68;;;;;;;23.09;48.17;98929.22;7475073;38;21074;31
2023/05/20 15:11:23;;;;;;;6.90;5.15;;;;;;;23.07;48.93;98929.47;7442494;39;20246;31
2023/05/20 15:16:43;;;;;;;12.93;5.32;;;;;;;23.15;49.48;98940.03;7445555;39;20242;31
2023/05/20 15:22:12;;;;;;;12.90;6.00;;;;;;;23.01;51.02;98952.47;7398348;39;21727;31
2023/05/20 15:27:45;;;;;;;6.30;5.60;;;;;;;22.85;50.93;98945.09;7378952;39;21251;31
2023/05/20 15:33:03;;;;;;;10.07;6.40;;;;;;;22.74;50.78;98955.09;7399402;39;20305;31
2023/05/20 15:38:34;;;;;;;7.80;6.50;;;;;;;22.63;51.73;98942.25;7373994;39;21567;31
2023/05/20 15:49:12;;;;;;;10.30;6.15;;;;;;;22.53;51.67;98955.00;7440519;39;20353;31
2023/05/20 15:54:33;;;;;;;7.07;6.20;;;;;;;22.56;52.26;98954.47;7419821;39;20246;31
2023/05/20 15:59:50;;;;;;;7.10;5.70;;;;;;;22.54;52.09;98951.16;7481583;39;21318;31
2023/05/20 16:10:31;;;;;;;7.33;6.33;;;;;;;22.28;52.92;98948.00;7462976;39;20277;31
2023/05/20 16:15:59;;;;;;;6.70;6.00;;;;;;;22.07;53.36;98945.16;7360218;39;21693;31
2023/05/20 16:21:17;;;;;;;9.10;6.45;;;;;;;21.99;54.01;98952.69;7408097;39;21415;31
2023/05/20 16:26:49;;;;;;;7.40;6.70;;;;;;;21.88;53.81;98950.81;7425077;39;21308;31
2023/05/20 16:32:10;;;;;;;8.07;6.78;;;;;;;21.87;53.54;98948.28;7466243;39;20377;31
2023/05/20 16:37:43;;;;;;;7.43;6.62;;;;;;;21.82;54.44;98942.72;7423806;39;20242;31
2023/05/20 16:43:15;;;;;;;8.37;6.37;;;;;;;21.64;54.48;98946.47;7419704;39;20258;31
2023/05/20 16:48:47;;;;;;;8.33;6.80;;;;;;;21.70;54.33;98950.16;7417746;39;21431;31
2023/05/20 16:59:27;;;;;;;8.70;7.10;;;;;;;21.69;55.49;98946.56;7483156;39;20289;31
2023/05/20 17:10:17;;;;;;;8.00;7.20;;;;;;;21.68;54.87;98944.91;7422748;39;20258;31
2023/05/20 17:20:55;;;;;;;8.30;7.40;;;;;;;21.50;55.20;98948.66;7461847;38;20411;31
2023/05/20 17:31:35;;;;;;;8.35;7.00;;;;;;;21.32;56.02;98950.75;7514009;38;20370;31
2023/05/20 17:42:12;;;;;;;10.35;8.20;;;;;;;21.19;55.89;98964.75;7443082;39;20270;31
2023/05/20 17:52:49;;;;;;;8.10;7.30;;;;;;;21.05;56.57;98975.91;7410571;39;20274;31
2023/05/20 18:03:29;;;;;;;8.27;7.12;;;;;;;21.04;57.48;98981.63;7458684;38;20269;31
2023/05/20 18:08:49;;;;;;;8.60;7.70;;;;;;;21.03;57.13;98983.53;7491361;39;20254;31
2023/05/20 18:14:25;;;;;;;8.50;7.60;;;;;;;20.94;57.01;98989.59;7489404;38;20410;31
2023/05/20 18:20:02;;;;;;;8.95;8.02;;;;;;;20.82;57.06;98978.66;7471700;39;20430;31
2023/05/20 18:25:22;;;;;;;9.43;8.25;;;;;;;20.72;57.10;98972.94;7467721;39;20242;31
2023/05/20 18:30:57;;;;;;;9.35;7.68;;;;;;;20.61;57.18;98974.59;7449619;39;20250;31
2023/05/20 18:36:33;;;;;;;8.98;8.07;;;;;;;20.53;58.29;98974.13;7442942;39;21383;31
2023/05/20 18:41:50;;;;;;;9.37;8.47;;;;;;;20.48;58.66;98971.25;7381639;39;20367;31
2023/05/20 18:47:23;;;;;;;8.40;7.60;;;;;;;20.41;58.70;98967.75;7406304;39;21356;31
2023/05/20 18:52:56;;;;;;;8.85;7.75;;;;;;;20.35;58.62;98976.94;7364849;39;20239;31
2023/05/20 18:58:28;;;;;;;9.73;8.30;;;;;;;20.24;58.03;98973.06;7383156;39;21908;31
2023/05/20 19:03:45;;;;;;;11.10;8.15;;;;;;;20.21;58.24;98979.00;7404128;39;20270;31
2023/05/20 19:09:16;;;;;;;9.10;8.10;;;;;;;20.12;58.88;98980.41;7337923;39;20252;31
2023/05/20 19:14:33;;;;;;;9.85;8.65;;;;;;;20.08;59.66;98976.47;7256970;40;21645;31
2023/05/20 19:19:51;;;;;;;8.60;7.70;;;;;;;19.95;58.52;98990.34;7268466;39;21234;31
2023/05/20 19:25:25;;;;;;;12.90;9.10;;;;;;;19.96;58.85;98994.75;7315879;39;21786;31
2023/05/20 19:30:57;;;;;;;10.05;8.35;;;;;;;19.90;59.15;98991.03;7284548;39;20264;31
2023/05/20 19:36:29;;;;;;;10.80;8.50;;;;;;;19.80;59.66;98990.75;7329009;39;21275;31
2023/05/20 19:42:00;;;;;;;8.95;8.05;;;;;;;19.68;59.92;98987.97;7359524;39;20361;31
2023/05/20 19:47:17;;;;;;;11.30;8.60;;;;;;;19.64;60.26;98996.88;7388606;39;20244;31
2023/05/20 19:52:49;;;;;;;9.70;8.70;;;;;;;19.53;60.54;98987.53;7379621;39;20233;31
2023/05/20 19:58:25;;;;;;;9.85;8.85;;;;;;;19.54;60.75;98991.94;7365519;39;20284;31
2023/05/20 20:03:57;;;;;;;9.53;8.17;;;;;;;19.52;60.30;99002.28;7358997;39;20367;31
2023/05/20 20:09:17;;;;;;;9.45;8.45;;;;;;;19.47;60.31;99006.75;7296648;39;21927;31
2023/05/20 20:19:55;;;;;;;9.63;8.63;;;;;;;19.25;61.43;99000.88;7335646;39;20507;31
2023/05/20 20:30:31;;;;;;;13.70;9.15;;;;;;;19.20;61.67;98998.81;7387215;39;20270;31
2023/05/20 20:36:07;;;;;;;12.63;9.77;;;;;;;19.15;62.20;99003.28;7423336;39;20394;31
2023/05/20 20:41:23;;;;;;;11.30;9.90;;;;;;;19.07;62.94;98998.12;7216453;39;21050;31
2023/05/20 20:46:58;;;;;;;11.03;9.80;;;;;;;18.99;62.72;99001.16;7511958;38;20255;31
2023/05/20 20:52:32;;;;;;;13.67;9.73;;;;;;;18.99;63.30;98988.34;7421529;39;20313;31
2023/05/20 20:57:49;;;;;;;12.07;10.87;;;;;;;18.96;63.36;98987.94;7361692;39;20294;31
2023/05/20 21:03:22;;;;;;;13.93;10.60;;;;;;;18.94;63.54;98985.44;7315387;39;21641;31
2023/05/20 21:08:56;;;;;;;11.10;10.00;;;;;;;18.90;63.90;98978.75;7378698;39;20347;31
2023/05/20 21:14:26;;;;;;;11.35;10.25;;;;;;;18.93;63.65;98975.56;7438075;39;21586;31
2023/05/20 21:19:46;;;;;;;13.20;10.35;;;;;;;18.96;63.50;98961.44;7453884;39;20318;31
2023/05/20 21:25:20;;;;;;;11.43;10.23;;;;;;;18.87;64.70;98957.34;7468702;39;20230;31
2023/05/20 21:30:38;;;;;;;12.60;10.90;;;;;;;18.85;64.11;98956.75;7446135;39;20250;31
2023/05/20 21:36:10;;;;;;;12.33;10.23;;;;;;;18.83;64.33;98953.38;7377384;39;21677;31
2023/05/20 21:46:48;;;;;;;12.07;10.80;;;;;;;18.71;65.95;98942.37;7370944;39;20278;31
2023/05/20 21:52:18;;;;;;;12.18;10.88;;;;;;;18.73;64.65;98945.75;7417026;39;21239;31
2023/05/20 21:57:53;;;;;;;12.60;11.30;;;;;;;18.68;65.50;98934.66;7402072;39;20434;31
2023/05/20 22:03:26;;;;;;;13.20;11.70;;;;;;;18.62;65.96;98924.63;7400357;39;20263;31
2023/05/20 22:08:44;;;;;;;13.45;11.15;;;;;;;18.60;65.53;98936.84;7358300;39;20248;31
2023/05/20 22:14:04;;;;;;;14.40;11.60;;;;;;;18.57;65.52;98932.66;7353710;39;21433;31
2023/05/20 22:24:54;;;;;;;12.87;11.13;;;;;;;18.47;66.42;98919.47;7364124;39;20244;31
2023/05/20 22:30:14;;;;;;;13.47;12.07;;;;;;;18.38;66.73;98909.91;7429664;39;20803;31
2023/05/20 22:35:50;;;;;;;13.33;11.63;;;;;;;18.41;66.47;98903.16;7487596;39;20249;31
2023/05/20 22:41:23;;;;;;;16.17;11.60;;;;;;;18.41;66.71;98905.91;7419066;39;21951;31
2023/05/20 22:46:58;;;;;;;15.40;12.13;;;;;;;18.42;66.79;98894.78;7444487;39;20299;31
2023/05/20 22:52:15;;;;;;;14.40;11.60;;;;;;;18.45;66.34;98897.03;7445001;39;20321;31
2023/05/20 22:57:47;;;;;;;12.70;11.30;;;;;;;18.41;66.36;98887.63;7401001;39;20370;31
2023/05/20 23:03:18;;;;;;;13.80;11.55;;;;;;;18.37;66.68;98886.41;7391392;39;20262;31
2023/05/20 23:08:51;;;;;;;15.95;12.95;;;;;;;18.32;66.98;98877.22;7396261;39;20379;31
2023/05/20 23:14:24;;;;;;;14.60;13.10;;;;;;;18.24;67.94;98864.72;7406529;39;20247;31
2023/05/20 23:19:41;;;;;;;16.17;12.53;;;;;;;18.29;66.43;98869.50;7335600;39;20263;31
2023/05/20 23:25:01;;;;;;;16.30;13.10;;;;;;;18.29;67.37;98872.22;7377354;39;20266;31
2023/05/20 23:30:33;;;;;;;14.90;11.40;;;;;;;18.31;66.98;98859.16;7371799;39;21540;31
2023/05/20 23:35:50;;;;;;;16.20;12.13;;;;;;;18.37;66.43;98850.94;7384687;39;21841;31
2023/05/20 23:46:28;;;;;;;14.67;12.20;;;;;;;18.24;67.25;98851.06;7437239;39;20410;31
2023/05/20 23:52:00;;;;;;;13.37;11.97;;;;;;;18.22;67.68;98846.88;7438875;38;21777;31
2023/05/20 23:57:17;;;;;;;13.75;11.40;;;;;;;18.25;67.49;98844.56;7442820;39;20262;31
